createdAt,value
2019-01-18T00:01:14.340Z,6.89
2019-01-18T00:03:43.938Z,6.58
2019-01-18T00:06:13.696Z,7.06
2019-01-18T00:08:43.473Z,7.08
2019-01-18T00:11:13.140Z,7.11
2019-01-18T00:13:42.767Z,6.82
2019-01-18T00:16:12.490Z,7.34
2019-01-18T00:18:42.112Z,6.71
2019-01-18T00:21:11.841Z,6.79
2019-01-18T00:23:41.524Z,6.78
2019-01-18T00:26:11.231Z,6.64
2019-01-18T00:28:41.220Z,7.01
2019-01-18T00:31:10.948Z,7.34
2019-01-18T00:33:40.559Z,6.75
2019-01-18T00:36:10.580Z,7.00
2019-01-18T00:38:40.261Z,6.71
2019-01-18T00:41:09.948Z,7.14
2019-01-18T00:43:39.614Z,6.49
2019-01-18T00:46:09.743Z,6.96
2019-01-18T00:48:39.487Z,6.88
2019-01-18T00:51:09.212Z,6.80
2019-01-18T00:53:39.057Z,6.72
2019-01-18T00:56:08.768Z,7.06
2019-01-18T00:58:38.452Z,7.17
2019-01-18T01:01:08.263Z,6.98
2019-01-18T01:03:37.985Z,7.12
2019-01-18T01:06:07.718Z,6.92
2019-01-18T01:08:37.396Z,7.01
2019-01-18T01:11:07.135Z,7.12
2019-01-18T01:13:36.901Z,7.14
2019-01-18T01:16:06.602Z,6.86
2019-01-18T01:18:36.263Z,7.21
2019-01-18T01:21:05.974Z,7.33
2019-01-18T01:23:35.647Z,7.36
2019-01-18T01:26:05.399Z,7.30
2019-01-18T01:28:35.182Z,7.23
2019-01-18T01:31:05.573Z,7.34
2019-01-18T01:33:35.368Z,6.34
2019-01-18T01:36:05.061Z,5.61
2019-01-18T01:38:34.835Z,6.58
2019-01-18T01:41:04.565Z,7.04
2019-01-18T01:43:34.289Z,6.97
2019-01-18T01:46:03.992Z,7.24
2019-01-18T01:48:33.751Z,7.19
2019-01-18T01:51:03.438Z,6.13
2019-01-18T01:53:33.278Z,6.74
2019-01-18T01:56:03.208Z,7.16
2019-01-18T01:58:32.987Z,7.52
2019-01-18T02:01:02.615Z,7.15
2019-01-18T02:03:32.300Z,7.51
2019-01-18T02:06:02.032Z,7.37
2019-01-18T02:08:31.708Z,7.51
2019-01-18T02:11:01.358Z,7.48
2019-01-18T02:13:31.008Z,7.49
2019-01-18T02:16:00.719Z,7.58
2019-01-18T02:18:30.459Z,7.46
2019-01-18T02:21:00.246Z,7.47
2019-01-18T02:23:29.877Z,7.28
2019-01-18T02:25:59.571Z,6.80
2019-01-18T02:28:29.288Z,6.47
2019-01-18T02:30:58.969Z,7.03
2019-01-18T02:33:28.664Z,7.05
2019-01-18T02:35:58.414Z,7.20
2019-01-18T02:38:28.129Z,7.05
2019-01-18T02:40:57.860Z,7.30
2019-01-18T02:43:27.508Z,7.10
2019-01-18T02:45:57.185Z,6.99
2019-01-18T02:48:26.836Z,6.85
2019-01-18T02:50:56.534Z,6.70
2019-01-18T02:53:26.121Z,7.20
2019-01-18T02:55:55.802Z,7.29
2019-01-18T02:58:25.421Z,7.48
2019-01-18T03:00:55.115Z,7.42
2019-01-18T03:03:24.724Z,7.57
2019-01-18T03:05:54.348Z,7.58
2019-01-18T03:08:23.991Z,7.58
2019-01-18T03:10:53.664Z,7.62
2019-01-18T03:13:23.354Z,7.80
2019-01-18T03:15:53.020Z,7.86
2019-01-18T03:18:22.681Z,7.66
2019-01-18T03:20:52.644Z,7.33
2019-01-18T03:23:22.375Z,7.06
2019-01-18T03:25:51.702Z,7.29
2019-01-18T03:28:21.029Z,7.21
2019-01-18T03:30:50.354Z,7.27
2019-01-18T03:33:19.676Z,6.59
2019-01-18T03:35:49.072Z,7.22
2019-01-18T03:38:18.397Z,6.99
2019-01-18T03:40:47.724Z,7.20
2019-01-18T03:43:17.052Z,7.19
2019-01-18T03:45:46.474Z,6.79
2019-01-18T03:48:15.896Z,7.13
2019-01-18T03:50:45.222Z,6.79
2019-01-18T03:53:14.567Z,7.22
2019-01-18T03:55:43.958Z,7.09
2019-01-18T03:58:13.275Z,6.91
2019-01-18T04:00:42.614Z,7.07
2019-01-18T04:03:11.930Z,6.46
2019-01-18T04:05:41.258Z,6.13
2019-01-18T04:08:10.595Z,6.62
2019-01-18T04:10:40.000Z,6.84
2019-01-18T04:13:09.333Z,7.18
2019-01-18T04:15:38.668Z,7.11
2019-01-18T04:18:08.088Z,7.12
2019-01-18T04:20:37.451Z,6.84
2019-01-18T04:23:06.767Z,7.03
2019-01-18T04:25:36.091Z,7.01
2019-01-18T04:28:05.525Z,7.08
2019-01-18T04:30:35.021Z,7.01
2019-01-18T04:33:04.362Z,7.12
2019-01-18T04:35:33.686Z,7.21
2019-01-18T04:38:03.020Z,7.04
2019-01-18T04:40:32.392Z,7.06
2019-01-18T04:43:01.805Z,6.92
2019-01-18T04:45:31.131Z,7.04
2019-01-18T04:48:00.453Z,6.91
2019-01-18T04:50:29.873Z,7.27
2019-01-18T04:52:59.220Z,6.88
2019-01-18T04:55:28.550Z,7.17
2019-01-18T04:57:57.871Z,6.62
2019-01-18T05:00:31.059Z,6.82
2019-01-18T05:03:00.457Z,6.52
2019-01-18T05:05:29.858Z,6.76
2019-01-18T05:07:59.180Z,6.84
2019-01-18T05:10:29.282Z,7.00
2019-01-18T05:12:59.230Z,7.10
2019-01-18T05:15:30.456Z,7.12
2019-01-18T05:17:59.783Z,7.41
2019-01-18T05:20:29.100Z,7.57
2019-01-18T05:22:58.466Z,7.48
2019-01-18T05:25:27.776Z,7.52
2019-01-18T05:27:57.110Z,7.62
2019-01-18T05:30:28.071Z,7.55
2019-01-18T05:32:57.544Z,7.73
2019-01-18T05:35:27.021Z,7.65
2019-01-18T05:37:56.433Z,7.58
2019-01-18T05:40:25.757Z,7.49
2019-01-18T05:42:55.135Z,7.49
2019-01-18T05:45:24.589Z,7.57
2019-01-18T05:47:54.016Z,7.38
2019-01-18T05:50:28.220Z,7.20
2019-01-18T05:52:58.344Z,7.10
2019-01-18T05:55:27.668Z,7.30
2019-01-18T05:57:57.018Z,7.42
2019-01-18T06:00:55.000Z,7.64
2019-01-18T06:03:18.727Z,7.49
2019-01-18T06:05:48.227Z,7.43
2019-01-18T06:08:17.571Z,7.40
2019-01-18T06:10:46.971Z,7.36
2019-01-18T06:13:16.329Z,7.02
2019-01-18T06:15:45.741Z,7.19
2019-01-18T06:18:15.085Z,7.29
2019-01-18T06:20:44.430Z,7.69
2019-01-18T06:23:13.780Z,7.43
2019-01-18T06:25:43.189Z,7.90
2019-01-18T06:28:12.601Z,7.74
2019-01-18T06:30:41.950Z,7.65
2019-01-18T06:33:11.373Z,7.64
2019-01-18T06:35:40.730Z,7.40
2019-01-18T06:38:10.150Z,7.04
2019-01-18T06:40:39.593Z,7.27
2019-01-18T06:43:08.936Z,6.90
2019-01-18T06:45:38.285Z,7.27
2019-01-18T06:48:07.601Z,7.18
2019-01-18T06:50:36.954Z,7.39
2019-01-18T06:53:08.414Z,7.62
2019-01-18T06:55:37.753Z,7.95
2019-01-18T06:58:07.160Z,7.65
2019-01-18T07:00:36.495Z,7.76
2019-01-18T07:03:06.023Z,7.60
2019-01-18T07:05:35.351Z,7.53
2019-01-18T07:08:04.967Z,7.46
2019-01-18T07:10:34.370Z,7.18
2019-01-18T07:13:03.809Z,6.89
2019-01-18T07:15:33.221Z,6.68
2019-01-18T07:18:02.629Z,6.82
2019-01-18T07:20:32.033Z,6.66
2019-01-18T07:23:01.349Z,6.55
2019-01-18T07:25:31.614Z,6.95
2019-01-18T07:28:01.071Z,7.12
2019-01-18T07:30:35.761Z,6.08
2019-01-18T07:33:06.909Z,6.59
2019-01-18T07:35:36.343Z,6.93
2019-01-18T07:38:05.747Z,6.40
2019-01-18T07:40:35.357Z,6.61
2019-01-18T07:43:04.899Z,6.61
2019-01-18T07:45:34.249Z,6.68
2019-01-18T07:48:03.748Z,6.84
2019-01-18T07:50:33.166Z,6.96
2019-01-18T07:53:02.513Z,6.78
2019-01-18T07:55:33.578Z,6.68
2019-01-18T07:58:02.973Z,6.78
2019-01-18T08:00:32.378Z,6.72
2019-01-18T08:03:01.800Z,7.02
2019-01-18T08:05:32.132Z,6.95
2019-01-18T08:08:03.088Z,7.01
2019-01-18T08:10:32.633Z,6.68
2019-01-18T08:13:02.050Z,6.50
2019-01-18T08:15:31.386Z,6.72
2019-01-18T08:18:00.800Z,7.05
2019-01-18T08:20:31.040Z,7.13
2019-01-18T08:23:01.334Z,7.03
2019-01-18T08:25:30.669Z,7.25
2019-01-18T08:28:00.490Z,7.00
2019-01-18T08:30:30.909Z,6.88
2019-01-18T08:33:00.222Z,7.07
2019-01-18T08:35:30.309Z,7.33
2019-01-18T08:37:59.752Z,7.58
2019-01-18T08:40:34.639Z,7.54
2019-01-18T08:43:04.834Z,7.57
2019-01-18T08:45:37.439Z,8.28
2019-01-18T08:48:07.501Z,8.00
2019-01-18T08:50:37.066Z,7.97
2019-01-18T08:53:06.649Z,7.93
2019-01-18T08:55:36.054Z,8.22
2019-01-18T08:58:05.478Z,8.14
2019-01-18T09:00:34.892Z,7.82
2019-01-18T09:03:04.484Z,7.84
2019-01-18T09:05:33.903Z,7.64
2019-01-18T09:08:03.307Z,8.16
2019-01-18T09:10:33.018Z,8.30
2019-01-18T09:13:02.665Z,8.15
2019-01-18T09:15:32.066Z,8.25
2019-01-18T09:18:01.494Z,8.45
2019-01-18T09:20:30.980Z,8.62
2019-01-18T09:23:00.404Z,8.53
2019-01-18T09:25:29.834Z,8.35
2019-01-18T09:27:59.239Z,8.41
2019-01-18T09:30:32.189Z,8.73
2019-01-18T09:33:02.381Z,8.96
2019-01-18T09:35:31.884Z,9.00
2019-01-18T09:38:01.447Z,9.05
2019-01-18T09:40:32.310Z,8.98
2019-01-18T09:43:01.804Z,8.87
2019-01-18T09:45:31.216Z,8.88
2019-01-18T09:48:00.619Z,8.77
2019-01-18T09:50:31.591Z,8.47
2019-01-18T09:53:01.559Z,8.40
2019-01-18T09:55:30.967Z,8.68
2019-01-18T09:58:00.493Z,8.74
2019-01-18T10:00:31.858Z,8.56
2019-01-18T10:03:01.588Z,8.91
2019-01-18T10:05:31.744Z,8.99
2019-01-18T10:08:01.401Z,8.84
2019-01-18T10:10:30.840Z,9.29
2019-01-18T10:13:00.281Z,9.39
2019-01-18T10:15:35.656Z,9.50
2019-01-18T10:18:05.637Z,9.42
2019-01-18T10:20:35.035Z,9.66
2019-01-18T10:23:04.595Z,9.75
2019-01-18T10:25:34.013Z,9.88
2019-01-18T10:28:03.524Z,9.82
2019-01-18T10:30:33.816Z,9.79
2019-01-18T10:33:03.247Z,9.66
2019-01-18T10:35:32.591Z,9.59
2019-01-18T10:38:01.946Z,9.54
2019-01-18T10:40:31.364Z,9.63
2019-01-18T10:43:00.774Z,9.72
2019-01-18T10:45:30.204Z,9.72
2019-01-18T10:48:00.089Z,9.93
2019-01-18T10:50:31.659Z,9.99
2019-01-18T10:53:01.119Z,9.89
2019-01-18T10:55:30.452Z,9.77
2019-01-18T10:57:59.877Z,9.74
2019-01-18T11:00:32.240Z,9.85
2019-01-18T11:03:01.637Z,10.15
2019-01-18T11:05:31.093Z,10.27
2019-01-18T11:08:02.955Z,10.25
2019-01-18T11:10:32.295Z,10.27
2019-01-18T11:13:01.693Z,10.28
2019-01-18T11:15:35.994Z,10.21
2019-01-18T11:18:02.445Z,10.15
2019-01-18T11:20:47.545Z,10.06
2019-01-18T11:23:16.965Z,10.11
2019-01-18T11:25:46.304Z,10.06
2019-01-18T11:28:15.660Z,10.19
2019-01-18T11:30:44.977Z,10.33
2019-01-18T11:33:14.393Z,10.52
2019-01-18T11:35:43.983Z,10.72
2019-01-18T11:38:13.409Z,10.93
2019-01-18T11:40:42.848Z,11.22
2019-01-18T11:43:12.218Z,11.27
2019-01-18T11:45:41.551Z,11.30
2019-01-18T11:48:11.041Z,11.31
2019-01-18T11:50:40.496Z,11.42
2019-01-18T11:53:09.831Z,11.49
2019-01-18T11:55:39.255Z,11.52
2019-01-18T11:58:08.693Z,11.45
2019-01-18T12:00:38.131Z,11.36
2019-01-18T12:03:07.643Z,11.20
2019-01-18T12:05:37.012Z,11.11
2019-01-18T12:08:06.421Z,10.95
2019-01-18T12:10:35.760Z,10.92
2019-01-18T12:13:05.577Z,10.91
2019-01-18T12:15:35.020Z,10.91
2019-01-18T12:18:05.039Z,10.87
2019-01-18T12:20:36.027Z,10.84
2019-01-18T12:23:06.205Z,10.79
2019-01-18T12:25:35.545Z,10.80
2019-01-18T12:28:05.399Z,10.78
2019-01-18T12:30:35.891Z,10.79
2019-01-18T12:33:05.314Z,10.77
2019-01-18T12:35:34.821Z,10.90
2019-01-18T12:38:04.345Z,10.99
2019-01-18T12:40:33.806Z,11.07
2019-01-18T12:43:03.241Z,11.02
2019-01-18T12:45:32.674Z,11.10
2019-01-18T12:48:02.107Z,11.17
2019-01-18T12:50:36.186Z,11.20
2019-01-18T12:53:05.983Z,11.19
2019-01-18T12:55:35.406Z,11.23
2019-01-18T12:58:05.043Z,11.27
2019-01-18T13:00:34.474Z,11.28
2019-01-18T13:03:04.034Z,11.30
2019-01-18T13:05:36.888Z,11.33
2019-01-18T13:08:06.309Z,11.37
2019-01-18T13:10:35.752Z,11.43
2019-01-18T13:13:05.509Z,11.38
2019-01-18T13:15:56.080Z,11.38
2019-01-18T13:18:25.447Z,11.36
2019-01-18T13:20:55.119Z,11.36
2019-01-18T13:23:24.454Z,11.33
2019-01-18T13:25:53.903Z,11.28
2019-01-18T13:28:24.830Z,11.18
2019-01-18T13:30:54.153Z,11.12
2019-01-18T13:33:23.504Z,11.11
2019-01-18T13:35:53.076Z,10.96
2019-01-18T13:38:22.420Z,10.77
2019-01-18T13:40:51.839Z,10.76
2019-01-18T13:43:21.281Z,10.77
2019-01-18T13:45:50.637Z,10.69
2019-01-18T13:48:20.108Z,10.55
2019-01-18T13:50:49.461Z,10.53
2019-01-18T13:53:18.829Z,10.41
2019-01-18T13:55:48.253Z,10.38
2019-01-18T13:58:17.613Z,10.39
2019-01-18T14:00:47.023Z,10.39
2019-01-18T14:03:16.392Z,10.36
2019-01-18T14:05:45.853Z,10.31
2019-01-18T14:08:15.272Z,10.24
2019-01-18T14:10:44.751Z,10.31
2019-01-18T14:13:14.117Z,10.37
2019-01-18T14:15:43.572Z,10.40
2019-01-18T14:18:13.116Z,10.43
2019-01-18T14:20:42.534Z,10.53
2019-01-18T14:23:12.169Z,10.50
2019-01-18T14:25:41.512Z,10.46
2019-01-18T14:28:10.957Z,10.47
2019-01-18T14:30:40.383Z,10.34
2019-01-18T14:33:09.795Z,10.30
2019-01-18T14:35:39.131Z,10.20
2019-01-18T14:38:08.549Z,10.05
2019-01-18T14:40:37.974Z,9.96
2019-01-18T14:43:07.332Z,9.89
2019-01-18T14:45:39.002Z,9.95
2019-01-18T14:48:08.489Z,9.96
2019-01-18T14:50:38.168Z,9.89
2019-01-18T14:53:07.618Z,9.81
2019-01-18T14:55:37.077Z,9.89
2019-01-18T14:58:08.953Z,9.83
2019-01-18T15:00:39.553Z,9.82
2019-01-18T15:03:09.172Z,9.82
2019-01-18T15:05:38.570Z,9.86
2019-01-18T15:08:08.621Z,9.89
2019-01-18T15:10:38.173Z,9.82
2019-01-18T15:13:10.329Z,9.68
2019-01-18T15:15:39.733Z,9.63
2019-01-18T15:18:09.159Z,9.61
2019-01-18T15:20:38.586Z,9.61
2019-01-18T15:23:08.037Z,9.61
2019-01-18T15:25:37.983Z,9.62
2019-01-18T15:28:07.387Z,9.61
2019-01-18T15:30:36.882Z,9.91
2019-01-18T15:33:09.423Z,9.75
2019-01-18T15:35:38.568Z,9.67
2019-01-18T15:38:09.858Z,9.61
2019-01-18T15:40:45.649Z,9.58
2019-01-18T15:43:17.571Z,9.56
2019-01-18T15:45:47.008Z,9.55
2019-01-18T15:48:16.416Z,9.57
2019-01-18T15:50:45.768Z,9.53
2019-01-18T15:53:15.197Z,9.54
2019-01-18T15:55:44.606Z,9.52
2019-01-18T15:58:14.021Z,9.38
2019-01-18T16:00:44.417Z,9.31
2019-01-18T16:03:16.043Z,9.29
2019-01-18T16:05:45.238Z,9.26
2019-01-18T16:08:14.693Z,9.16
2019-01-18T16:10:44.057Z,9.15
2019-01-18T16:13:13.867Z,9.10
2019-01-18T16:16:06.685Z,9.09
2019-01-18T16:18:36.108Z,9.04
2019-01-18T16:21:05.594Z,9.13
2019-01-18T16:23:34.981Z,9.01
2019-01-18T16:26:04.475Z,9.05
2019-01-18T16:28:33.799Z,8.99
2019-01-18T16:31:03.154Z,8.87
2019-01-18T16:33:32.568Z,8.95
2019-01-18T16:36:01.904Z,8.97
2019-01-18T16:38:31.240Z,9.03
2019-01-18T16:41:00.592Z,9.04
2019-01-18T16:43:35.825Z,8.94
2019-01-18T16:46:05.252Z,8.91
2019-01-18T16:48:34.662Z,8.91
2019-01-18T16:51:04.215Z,8.87
2019-01-18T16:53:33.748Z,8.82
2019-01-18T16:56:03.376Z,8.77
2019-01-18T16:58:32.834Z,8.78
2019-01-18T17:01:03.859Z,8.84
2019-01-18T17:03:33.274Z,8.78
2019-01-18T17:06:02.784Z,8.70
2019-01-18T17:08:32.194Z,8.64
2019-01-18T17:11:01.663Z,8.78
2019-01-18T17:13:34.656Z,8.69
2019-01-18T17:16:04.088Z,8.69
2019-01-18T17:18:33.606Z,8.64
2019-01-18T17:21:02.964Z,8.53
2019-01-18T17:23:32.374Z,8.60
2019-01-18T17:26:01.818Z,8.51
2019-01-18T17:28:31.230Z,8.51
2019-01-18T17:31:00.577Z,8.46
2019-01-18T17:33:30.013Z,8.49
2019-01-18T17:36:16.462Z,8.53
2019-01-18T17:39:15.449Z,8.48
2019-01-18T17:42:12.393Z,8.45
2019-01-18T17:45:09.061Z,8.35
2019-01-18T17:48:07.075Z,8.35
2019-01-18T17:51:17.617Z,8.45
2019-01-18T17:54:11.037Z,8.42
2019-01-18T17:57:24.681Z,8.20
2019-01-18T18:00:22.957Z,8.26
2019-01-18T18:03:22.400Z,8.26
2019-01-18T18:06:27.758Z,8.30
2019-01-18T18:09:08.930Z,8.47
2019-01-18T18:12:04.244Z,8.35
2019-01-18T18:14:51.731Z,8.30
2019-01-18T18:17:40.803Z,8.24
2019-01-18T18:20:45.840Z,8.23
2019-01-18T18:23:53.929Z,8.32
2019-01-18T18:26:51.624Z,8.17
2019-01-18T18:29:51.852Z,8.21
2019-01-18T18:32:50.809Z,8.15
2019-01-18T18:35:44.316Z,8.18
2019-01-18T18:39:13.056Z,8.14
2019-01-18T18:42:29.361Z,8.11
2019-01-18T18:45:41.105Z,8.09
2019-01-18T18:48:45.185Z,8.12
2019-01-18T18:51:53.054Z,8.06
2019-01-18T18:54:40.701Z,7.97
2019-01-18T18:57:26.065Z,8.02
2019-01-18T19:00:12.747Z,7.93
2019-01-18T19:03:14.904Z,8.05
2019-01-18T19:06:28.902Z,7.89
2019-01-18T19:09:45.689Z,7.98
2019-01-18T19:12:57.884Z,8.04
2019-01-18T19:15:47.689Z,8.02
2019-01-18T19:18:37.847Z,7.94
2019-01-18T19:21:29.653Z,7.90
2019-01-18T19:24:22.581Z,7.96
2019-01-18T19:27:07.398Z,7.93
2019-01-18T19:30:03.115Z,7.91
2019-01-18T19:33:11.838Z,7.88
2019-01-18T19:36:10.415Z,7.93
2019-01-18T19:39:29.855Z,7.88
2019-01-18T19:42:24.482Z,7.87
2019-01-18T19:45:33.726Z,7.88
2019-01-18T19:48:13.595Z,7.80
2019-01-18T19:51:15.097Z,7.89
2019-01-18T19:54:02.688Z,7.77
2019-01-18T19:57:00.830Z,7.85
2019-01-18T19:59:54.407Z,7.84
2019-01-18T20:03:05.714Z,7.83
2019-01-18T20:05:56.348Z,7.79
2019-01-18T20:08:44.901Z,7.82
2019-01-18T20:11:39.856Z,7.81
2019-01-18T20:14:24.698Z,7.81
2019-01-18T20:17:07.773Z,7.79
2019-01-18T20:20:23.189Z,7.78
2019-01-18T20:23:38.197Z,7.77
2019-01-18T20:26:57.985Z,7.87
2019-01-18T20:29:47.348Z,7.86
2019-01-18T20:32:51.983Z,7.75
2019-01-18T20:36:05.644Z,7.76
2019-01-18T20:38:58.657Z,7.67
2019-01-18T20:42:14.452Z,7.74
2019-01-18T20:45:10.538Z,7.69
2019-01-18T20:48:22.056Z,7.63
2019-01-18T20:51:11.511Z,7.72
2019-01-18T20:54:26.631Z,7.77
2019-01-18T20:57:17.383Z,7.70
2019-01-18T21:00:18.037Z,7.70
2019-01-18T21:03:24.386Z,7.69
2019-01-18T21:06:32.543Z,7.67
2019-01-18T21:09:18.989Z,7.75
2019-01-18T21:12:05.356Z,7.73
2019-01-18T21:14:51.417Z,7.96
2019-01-18T21:17:48.089Z,7.91
2019-01-18T21:20:44.419Z,7.88
2019-01-18T21:24:18.934Z,7.89
2019-01-18T21:27:10.392Z,7.65
2019-01-18T21:30:03.643Z,7.65
2019-01-18T21:33:35.261Z,7.67
2019-01-18T21:36:22.716Z,7.69
2019-01-18T21:39:02.214Z,7.57
2019-01-18T21:42:16.056Z,7.47
2019-01-18T21:45:28.368Z,7.57
2019-01-18T21:48:22.607Z,7.49
2019-01-18T21:51:07.666Z,7.50
2019-01-18T21:54:07.690Z,7.45
2019-01-18T21:57:02.772Z,7.41
2019-01-18T22:00:10.401Z,7.41
2019-01-18T22:03:01.716Z,7.47
2019-01-18T22:06:20.938Z,7.46
2019-01-18T22:09:08.643Z,7.32
2019-01-18T22:12:01.520Z,7.36
2019-01-18T22:14:59.626Z,7.35
2019-01-18T22:17:51.834Z,7.41
2019-01-18T22:20:57.035Z,7.31
2019-01-18T22:23:55.002Z,7.27
2019-01-18T22:26:53.379Z,7.32
2019-01-18T22:30:10.416Z,7.23
2019-01-18T22:33:04.849Z,7.33
2019-01-18T22:36:12.999Z,7.22
2019-01-18T22:39:06.807Z,7.31
2019-01-18T22:42:13.986Z,7.25
2019-01-18T22:45:04.212Z,7.17
2019-01-18T22:48:07.021Z,7.19
2019-01-18T22:51:16.261Z,7.10
2019-01-18T22:54:09.011Z,7.13
2019-01-18T22:57:22.728Z,7.10
2019-01-18T23:00:16.140Z,7.12
2019-01-18T23:03:05.544Z,7.08
2019-01-18T23:06:14.040Z,7.08
2019-01-18T23:09:12.598Z,7.01
2019-01-18T23:12:13.213Z,7.14
2019-01-18T23:14:58.437Z,7.13
2019-01-18T23:17:42.856Z,7.28
2019-01-18T23:21:05.778Z,7.41
2019-01-18T23:24:13.631Z,7.24
2019-01-18T23:27:36.438Z,7.22
2019-01-18T23:30:50.128Z,7.20
2019-01-18T23:33:49.156Z,7.35
2019-01-18T23:36:47.778Z,7.34
2019-01-18T23:40:02.971Z,7.32
2019-01-18T23:42:39.800Z,7.63
2019-01-18T23:45:35.590Z,7.50
2019-01-18T23:48:35.666Z,7.63
2019-01-18T23:51:38.272Z,7.68
2019-01-18T23:54:42.132Z,7.73
2019-01-18T23:57:59.626Z,7.84
